sensor_id;sensor_type;location;lat;lon;timestamp;pressure;altitude;pressure_sealevel;temperature;humidity
68986;BME280;56035;37.534;-122.308;2023-04-25T00:00:32;101272.31;;;16.10;59.66
68986;BME280;56035;37.534;-122.308;2023-04-25T00:02:59;101266.16;;;16.08;60.43
68986;BME280;56035;37.534;-122.308;2023-04-25T00:05:26;101270.88;;;16.02;60.56
68986;BME280;56035;37.534;-122.308;2023-04-25T00:07:52;101274.75;;;16.01;62.44
68986;BME280;56035;37.534;-122.308;2023-04-25T00:10:19;101274.75;;;16.01;59.29
68986;BME280;56035;37.534;-122.308;2023-04-25T00:12:46;101280.13;;;16.13;60.16
68986;BME280;56035;37.534;-122.308;2023-04-25T00:15:13;101269.63;;;15.88;60.15
68986;BME280;56035;37.534;-122.308;2023-04-25T00:17:40;101262.41;;;15.87;62.07
68986;BME280;56035;37.534;-122.308;2023-04-25T00:20:07;101265.50;;;15.90;63.75
68986;BME280;56035;37.534;-122.308;2023-04-25T00:22:36;101264.91;;;15.88;64.84
68986;BME280;56035;37.534;-122.308;2023-04-25T00:25:04;101267.97;;;15.87;75.64
68986;BME280;56035;37.534;-122.308;2023-04-25T00:27:32;101266.19;;;15.76;86.36
68986;BME280;56035;37.534;-122.308;2023-04-25T00:29:58;101270.69;;;15.55;89.41
68986;BME280;56035;37.534;-122.308;2023-04-25T00:32:24;101269.25;;;15.47;91.79
68986;BME280;56035;37.534;-122.308;2023-04-25T00:34:50;101280.06;;;15.49;92.96
68986;BME280;56035;37.534;-122.308;2023-04-25T00:37:16;101272.47;;;15.39;92.09
68986;BME280;56035;37.534;-122.308;2023-04-25T00:39:43;101264.34;;;15.32;94.10
68986;BME280;56035;37.534;-122.308;2023-04-25T00:42:10;101263.31;;;15.38;94.91
68986;BME280;56035;37.534;-122.308;2023-04-25T00:44:37;101264.44;;;15.37;91.12
68986;BME280;56035;37.534;-122.308;2023-04-25T00:47:04;101261.91;;;15.36;92.08
68986;BME280;56035;37.534;-122.308;2023-04-25T00:49:31;101267.50;;;15.41;86.51
68986;BME280;56035;37.534;-122.308;2023-04-25T00:51:57;101269.66;;;15.34;92.78
68986;BME280;56035;37.534;-122.308;2023-04-25T00:54:23;101265.88;;;15.18;94.18
68986;BME280;56035;37.534;-122.308;2023-04-25T00:56:49;101261.56;;;15.05;95.78
68986;BME280;56035;37.534;-122.308;2023-04-25T00:59:17;101260.66;;;14.99;97.54
68986;BME280;56035;37.534;-122.308;2023-04-25T01:01:45;101262.53;;;14.94;98.96
68986;BME280;56035;37.534;-122.308;2023-04-25T01:04:11;101259.00;;;14.77;100.00
68986;BME280;56035;37.534;-122.308;2023-04-25T01:06:39;101257.97;;;14.61;100.00
68986;BME280;56035;37.534;-122.308;2023-04-25T01:09:06;101255.47;;;14.42;100.00
68986;BME280;56035;37.534;-122.308;2023-04-25T01:11:33;101261.53;;;14.39;100.00
68986;BME280;56035;37.534;-122.308;2023-04-25T01:13:59;101264.41;;;14.27;100.00
68986;BME280;56035;37.534;-122.308;2023-04-25T01:16:26;101269.19;;;14.15;100.00
68986;BME280;56035;37.534;-122.308;2023-04-25T01:18:52;101274.75;;;13.98;100.00
68986;BME280;56035;37.534;-122.308;2023-04-25T01:21:18;101268.63;;;13.79;100.00
68986;BME280;56035;37.534;-122.308;2023-04-25T01:23:45;101263.41;;;13.66;100.00
68986;BME280;56035;37.534;-122.308;2023-04-25T01:26:12;101265.50;;;13.59;100.00
68986;BME280;56035;37.534;-122.308;2023-04-25T01:28:39;101268.09;;;13.49;100.00
68986;BME280;56035;37.534;-122.308;2023-04-25T01:31:09;101271.38;;;13.46;100.00
68986;BME280;56035;37.534;-122.308;2023-04-25T01:33:35;101276.59;;;13.30;100.00
68986;BME280;56035;37.534;-122.308;2023-04-25T01:36:02;101274.09;;;13.17;100.00
68986;BME280;56035;37.534;-122.308;2023-04-25T01:38:28;101272.31;;;13.11;100.00
68986;BME280;56035;37.534;-122.308;2023-04-25T01:40:54;101261.31;;;12.99;100.00
68986;BME280;56035;37.534;-122.308;2023-04-25T01:43:21;101269.50;;;12.94;100.00
68986;BME280;56035;37.534;-122.308;2023-04-25T01:45:48;101265.22;;;12.86;100.00
68986;BME280;56035;37.534;-122.308;2023-04-25T01:48:15;101259.06;;;12.84;100.00
68986;BME280;56035;37.534;-122.308;2023-04-25T01:50:42;101266.66;;;12.77;100.00
68986;BME280;56035;37.534;-122.308;2023-04-25T01:53:09;101271.72;;;12.69;100.00
68986;BME280;56035;37.534;-122.308;2023-04-25T01:55:36;101275.50;;;12.51;100.00
68986;BME280;56035;37.534;-122.308;2023-04-25T01:58:03;101266.84;;;12.35;100.00
68986;BME280;56035;37.534;-122.308;2023-04-25T02:00:35;101274.34;;;12.23;100.00
68986;BME280;56035;37.534;-122.308;2023-04-25T02:03:04;101267.00;;;12.17;100.00
68986;BME280;56035;37.534;-122.308;2023-04-25T02:05:38;101267.34;;;12.09;100.00
68986;BME280;56035;37.534;-122.308;2023-04-25T02:08:06;101262.09;;;12.07;100.00
68986;BME280;56035;37.534;-122.308;2023-04-25T02:10:33;101265.19;;;11.99;100.00
68986;BME280;56035;37.534;-122.308;2023-04-25T02:12:59;101262.66;;;11.86;100.00
68986;BME280;56035;37.534;-122.308;2023-04-25T02:15:26;101266.13;;;11.81;100.00
68986;BME280;56035;37.534;-122.308;2023-04-25T02:17:52;101266.59;;;11.78;100.00
68986;BME280;56035;37.534;-122.308;2023-04-25T02:20:21;101262.00;;;11.72;100.00
68986;BME280;56035;37.534;-122.308;2023-04-25T02:22:48;101264.28;;;11.63;100.00
68986;BME280;56035;37.534;-122.308;2023-04-25T02:25:15;101267.03;;;11.52;100.00
68986;BME280;56035;37.534;-122.308;2023-04-25T02:27:42;101256.78;;;11.40;100.00
68986;BME280;56035;37.534;-122.308;2023-04-25T02:30:09;101243.19;;;11.27;100.00
68986;BME280;56035;37.534;-122.308;2023-04-25T02:32:35;101239.53;;;11.15;100.00
68986;BME280;56035;37.534;-122.308;2023-04-25T02:35:02;101238.78;;;11.08;100.00
68986;BME280;56035;37.534;-122.308;2023-04-25T02:37:32;101250.84;;;10.95;100.00
68986;BME280;56035;37.534;-122.308;2023-04-25T02:39:59;101251.78;;;10.89;100.00
68986;BME280;56035;37.534;-122.308;2023-04-25T02:42:26;101258.31;;;10.76;100.00
68986;BME280;56035;37.534;-122.308;2023-04-25T02:44:52;101255.88;;;10.68;100.00
68986;BME280;56035;37.534;-122.308;2023-04-25T02:47:19;101254.50;;;10.59;100.00
68986;BME280;56035;37.534;-122.308;2023-04-25T02:49:45;101262.00;;;10.51;100.00
68986;BME280;56035;37.534;-122.308;2023-04-25T02:52:12;101265.06;;;10.43;100.00
68986;BME280;56035;37.534;-122.308;2023-04-25T02:54:39;101262.16;;;10.38;100.00
68986;BME280;56035;37.534;-122.308;2023-04-25T02:57:06;101266.88;;;10.31;100.00
68986;BME280;56035;37.534;-122.308;2023-04-25T02:59:33;101271.59;;;10.24;100.00
68986;BME280;56035;37.534;-122.308;2023-04-25T03:01:59;101272.72;;;10.16;100.00
68986;BME280;56035;37.534;-122.308;2023-04-25T03:04:26;101274.50;;;10.11;100.00
68986;BME280;56035;37.534;-122.308;2023-04-25T03:06:52;101268.56;;;10.07;100.00
68986;BME280;56035;37.534;-122.308;2023-04-25T03:09:19;101267.59;;;10.01;100.00
68986;BME280;56035;37.534;-122.308;2023-04-25T03:11:46;101268.09;;;9.92;100.00
68986;BME280;56035;37.534;-122.308;2023-04-25T03:14:13;101273.41;;;9.87;100.00
68986;BME280;56035;37.534;-122.308;2023-04-25T03:16:39;101272.63;;;9.79;100.00
68986;BME280;56035;37.534;-122.308;2023-04-25T03:19:06;101273.53;;;9.73;100.00
68986;BME280;56035;37.534;-122.308;2023-04-25T03:21:33;101281.63;;;9.68;100.00
68986;BME280;56035;37.534;-122.308;2023-04-25T03:24:02;101291.59;;;9.63;100.00
68986;BME280;56035;37.534;-122.308;2023-04-25T03:26:28;101294.81;;;9.59;100.00
68986;BME280;56035;37.534;-122.308;2023-04-25T03:28:55;101301.00;;;9.55;100.00
68986;BME280;56035;37.534;-122.308;2023-04-25T03:31:21;101304.19;;;9.52;100.00
68986;BME280;56035;37.534;-122.308;2023-04-25T03:33:48;101300.78;;;9.50;100.00
68986;BME280;56035;37.534;-122.308;2023-04-25T03:36:14;101296.56;;;9.47;100.00
68986;BME280;56035;37.534;-122.308;2023-04-25T03:38:40;101296.41;;;9.42;100.00
68986;BME280;56035;37.534;-122.308;2023-04-25T03:41:09;101304.03;;;9.40;100.00
68986;BME280;56035;37.534;-122.308;2023-04-25T03:43:36;101308.28;;;9.36;100.00
68986;BME280;56035;37.534;-122.308;2023-04-25T03:46:02;101317.03;;;9.26;100.00
68986;BME280;56035;37.534;-122.308;2023-04-25T03:48:28;101315.78;;;9.22;100.00
68986;BME280;56035;37.534;-122.308;2023-04-25T03:50:55;101315.56;;;9.24;100.00
68986;BME280;56035;37.534;-122.308;2023-04-25T03:53:21;101312.59;;;9.19;100.00
68986;BME280;56035;37.534;-122.308;2023-04-25T03:55:47;101319.00;;;9.12;100.00
68986;BME280;56035;37.534;-122.308;2023-04-25T03:58:13;101310.56;;;9.07;100.00
68986;BME280;56035;37.534;-122.308;2023-04-25T04:00:40;101316.50;;;9.04;100.00
68986;BME280;56035;37.534;-122.308;2023-04-25T04:03:06;101329.19;;;8.99;100.00
68986;BME280;56035;37.534;-122.308;2023-04-25T04:05:32;101320.34;;;8.97;100.00
68986;BME280;56035;37.534;-122.308;2023-04-25T04:07:58;101319.28;;;8.91;100.00
68986;BME280;56035;37.534;-122.308;2023-04-25T04:10:25;101327.97;;;8.88;100.00
68986;BME280;56035;37.534;-122.308;2023-04-25T04:12:51;101335.56;;;8.86;100.00
68986;BME280;56035;37.534;-122.308;2023-04-25T04:15:18;101339.81;;;8.82;100.00
68986;BME280;56035;37.534;-122.308;2023-04-25T04:17:44;101338.16;;;8.81;100.00
68986;BME280;56035;37.534;-122.308;2023-04-25T04:20:11;101331.84;;;8.74;100.00
68986;BME280;56035;37.534;-122.308;2023-04-25T04:22:37;101339.84;;;8.75;100.00
68986;BME280;56035;37.534;-122.308;2023-04-25T04:25:03;101328.03;;;8.75;100.00
68986;BME280;56035;37.534;-122.308;2023-04-25T04:27:32;101332.88;;;8.73;100.00
68986;BME280;56035;37.534;-122.308;2023-04-25T04:29:58;101345.78;;;8.72;100.00
68986;BME280;56035;37.534;-122.308;2023-04-25T04:32:24;101343.69;;;8.67;100.00
68986;BME280;56035;37.534;-122.308;2023-04-25T04:34:51;101350.03;;;8.68;100.00
68986;BME280;56035;37.534;-122.308;2023-04-25T04:37:18;101348.34;;;8.67;100.00
68986;BME280;56035;37.534;-122.308;2023-04-25T04:39:44;101345.38;;;8.62;100.00
68986;BME280;56035;37.534;-122.308;2023-04-25T04:42:11;101349.19;;;8.61;100.00
68986;BME280;56035;37.534;-122.308;2023-04-25T04:44:37;101352.78;;;8.61;100.00
68986;BME280;56035;37.534;-122.308;2023-04-25T04:47:05;101346.88;;;8.58;100.00
68986;BME280;56035;37.534;-122.308;2023-04-25T04:49:32;101343.50;;;8.56;100.00
68986;BME280;56035;37.534;-122.308;2023-04-25T04:51:58;101342.00;;;8.53;100.00
68986;BME280;56035;37.534;-122.308;2023-04-25T04:54:26;101342.47;;;8.50;100.00
68986;BME280;56035;37.534;-122.308;2023-04-25T04:56:52;101346.47;;;8.48;100.00
68986;BME280;56035;37.534;-122.308;2023-04-25T04:59:19;101358.09;;;8.43;100.00
68986;BME280;56035;37.534;-122.308;2023-04-25T05:01:45;101355.16;;;8.38;100.00
68986;BME280;56035;37.534;-122.308;2023-04-25T05:04:12;101358.28;;;8.35;100.00
68986;BME280;56035;37.534;-122.308;2023-04-25T05:06:38;101359.78;;;8.37;100.00
68986;BME280;56035;37.534;-122.308;2023-04-25T05:09:05;101349.81;;;8.36;100.00
68986;BME280;56035;37.534;-122.308;2023-04-25T05:11:31;101361.47;;;8.32;100.00
68986;BME280;56035;37.534;-122.308;2023-04-25T05:13:57;101353.22;;;8.25;100.00
68986;BME280;56035;37.534;-122.308;2023-04-25T05:16:24;101353.66;;;8.22;100.00
68986;BME280;56035;37.534;-122.308;2023-04-25T05:18:50;101348.34;;;8.20;100.00
68986;BME280;56035;37.534;-122.308;2023-04-25T05:21:16;101354.91;;;8.19;100.00
68986;BME280;56035;37.534;-122.308;2023-04-25T05:23:42;101353.00;;;8.27;100.00
68986;BME280;56035;37.534;-122.308;2023-04-25T05:26:10;101345.59;;;8.27;100.00
68986;BME280;56035;37.534;-122.308;2023-04-25T05:28:42;101353.84;;;8.27;100.00
68986;BME280;56035;37.534;-122.308;2023-04-25T05:31:11;101356.81;;;8.26;100.00
68986;BME280;56035;37.534;-122.308;2023-04-25T05:33:38;101362.09;;;8.20;100.00
68986;BME280;56035;37.534;-122.308;2023-04-25T05:36:04;101362.09;;;8.20;100.00
68986;BME280;56035;37.534;-122.308;2023-04-25T05:38:31;101362.53;;;8.17;100.00
68986;BME280;56035;37.534;-122.308;2023-04-25T05:40:57;101364.63;;;8.15;100.00
68986;BME280;56035;37.534;-122.308;2023-04-25T05:43:23;101351.75;;;8.09;100.00
68986;BME280;56035;37.534;-122.308;2023-04-25T05:45:50;101355.56;;;8.08;100.00
68986;BME280;56035;37.534;-122.308;2023-04-25T05:48:16;101352.19;;;8.06;100.00
68986;BME280;56035;37.534;-122.308;2023-04-25T05:50:42;101351.09;;;8.01;100.00
68986;BME280;56035;37.534;-122.308;2023-04-25T05:53:08;101352.59;;;8.03;100.00
68986;BME280;56035;37.534;-122.308;2023-04-25T05:55:35;101346.69;;;8.00;100.00
68986;BME280;56035;37.534;-122.308;2023-04-25T05:58:01;101346.03;;;7.97;100.00
68986;BME280;56035;37.534;-122.308;2023-04-25T06:00:27;101350.50;;;7.98;100.00
68986;BME280;56035;37.534;-122.308;2023-04-25T06:02:54;101344.38;;;7.96;100.00
68986;BME280;56035;37.534;-122.308;2023-04-25T06:05:20;101350.50;;;7.98;100.00
68986;BME280;56035;37.534;-122.308;2023-04-25T06:07:46;101349.66;;;7.98;100.00
68986;BME280;56035;37.534;-122.308;2023-04-25T06:10:13;101352.19;;;8.00;100.00
68986;BME280;56035;37.534;-122.308;2023-04-25T06:12:39;101338.69;;;8.05;100.00
68986;BME280;56035;37.534;-122.308;2023-04-25T06:15:06;101330.44;;;8.05;100.00
68986;BME280;56035;37.534;-122.308;2023-04-25T06:17:33;101332.78;;;8.08;100.00
68986;BME280;56035;37.534;-122.308;2023-04-25T06:19:59;101331.06;;;8.07;100.00
68986;BME280;56035;37.534;-122.308;2023-04-25T06:22:25;101340.78;;;8.03;100.00
68986;BME280;56035;37.534;-122.308;2023-04-25T06:24:52;101342.47;;;7.97;100.00
68986;BME280;56035;37.534;-122.308;2023-04-25T06:27:18;101336.97;;;7.97;100.00
68986;BME280;56035;37.534;-122.308;2023-04-25T06:29:44;101340.78;;;7.96;100.00
68986;BME280;56035;37.534;-122.308;2023-04-25T06:32:10;101345.00;;;7.92;100.00
68986;BME280;56035;37.534;-122.308;2023-04-25T06:34:37;101341.41;;;7.91;100.00
68986;BME280;56035;37.534;-122.308;2023-04-25T06:37:03;101342.69;;;7.89;100.00
68986;BME280;56035;37.534;-122.308;2023-04-25T06:39:29;101347.31;;;7.88;100.00
68986;BME280;56035;37.534;-122.308;2023-04-25T06:41:55;101352.16;;;7.86;100.00
68986;BME280;56035;37.534;-122.308;2023-04-25T06:44:21;101354.50;;;7.83;100.00
68986;BME280;56035;37.534;-122.308;2023-04-25T06:46:49;101361.03;;;7.82;100.00
68986;BME280;56035;37.534;-122.308;2023-04-25T06:49:15;101355.97;;;7.79;100.00
68986;BME280;56035;37.534;-122.308;2023-04-25T06:51:42;101352.59;;;7.77;100.00
68986;BME280;56035;37.534;-122.308;2023-04-25T06:54:08;101347.75;;;7.72;100.00
68986;BME280;56035;37.534;-122.308;2023-04-25T06:56:34;101351.09;;;7.74;100.00
68986;BME280;56035;37.534;-122.308;2023-04-25T06:59:01;101356.56;;;7.74;100.00
68986;BME280;56035;37.534;-122.308;2023-04-25T07:01:27;101358.06;;;7.77;100.00
68986;BME280;56035;37.534;-122.308;2023-04-25T07:03:53;101351.31;;;7.72;100.00
68986;BME280;56035;37.534;-122.308;2023-04-25T07:06:19;101351.50;;;7.71;100.00
68986;BME280;56035;37.534;-122.308;2023-04-25T07:08:45;101347.31;;;7.68;100.00
68986;BME280;56035;37.534;-122.308;2023-04-25T07:11:12;101350.06;;;7.68;100.00
68986;BME280;56035;37.534;-122.308;2023-04-25T07:13:38;101351.31;;;7.66;100.00
68986;BME280;56035;37.534;-122.308;2023-04-25T07:16:04;101352.16;;;7.66;100.00
68986;BME280;56035;37.534;-122.308;2023-04-25T07:18:30;101337.59;;;7.59;100.00
68986;BME280;56035;37.534;-122.308;2023-04-25T07:20:56;101345.38;;;7.56;100.00
68986;BME280;56035;37.534;-122.308;2023-04-25T07:23:23;101339.91;;;7.49;100.00
68986;BME280;56035;37.534;-122.308;2023-04-25T07:25:49;101334.41;;;7.49;100.00
68986;BME280;56035;37.534;-122.308;2023-04-25T07:28:15;101329.34;;;7.46;100.00
68986;BME280;56035;37.534;-122.308;2023-04-25T07:30:41;101335.22;;;7.43;100.00
68986;BME280;56035;37.534;-122.308;2023-04-25T07:33:08;101341.56;;;7.43;100.00
68986;BME280;56035;37.534;-122.308;2023-04-25T07:35:34;101345.13;;;7.44;100.00
68986;BME280;56035;37.534;-122.308;2023-04-25T07:38:01;101331.19;;;7.39;100.00
68986;BME280;56035;37.534;-122.308;2023-04-25T07:40:28;101346.19;;;7.43;100.00
68986;BME280;56035;37.534;-122.308;2023-04-25T07:42:55;101341.13;;;7.40;100.00
68986;BME280;56035;37.534;-122.308;2023-04-25T07:45:21;101349.78;;;7.43;100.00
68986;BME280;56035;37.534;-122.308;2023-04-25T07:47:49;101350.19;;;7.40;100.00
68986;BME280;56035;37.534;-122.308;2023-04-25T07:50:15;101350.84;;;7.42;100.00
68986;BME280;56035;37.534;-122.308;2023-04-25T07:52:41;101351.03;;;7.41;100.00
68986;BME280;56035;37.534;-122.308;2023-04-25T07:55:08;101352.94;;;7.40;100.00
68986;BME280;56035;37.534;-122.308;2023-04-25T07:57:35;101356.75;;;7.39;100.00
68986;BME280;56035;37.534;-122.308;2023-04-25T08:00:01;101355.88;;;7.39;100.00
68986;BME280;56035;37.534;-122.308;2023-04-25T08:02:27;101346.59;;;7.33;100.00
68986;BME280;56035;37.534;-122.308;2023-04-25T08:04:54;101352.69;;;7.35;100.00
68986;BME280;56035;37.534;-122.308;2023-04-25T08:07:20;101347.03;;;7.37;100.00
68986;BME280;56035;37.534;-122.308;2023-04-25T08:09:46;101342.38;;;7.37;100.00
68986;BME280;56035;37.534;-122.308;2023-04-25T08:12:12;101346.19;;;7.36;100.00
68986;BME280;56035;37.534;-122.308;2023-04-25T08:14:39;101352.50;;;7.37;100.00
68986;BME280;56035;37.534;-122.308;2023-04-25T08:17:05;101352.50;;;7.37;100.00
68986;BME280;56035;37.534;-122.308;2023-04-25T08:19:31;101350.81;;;7.36;100.00
68986;BME280;56035;37.534;-122.308;2023-04-25T08:21:58;101350.59;;;7.31;100.00
68986;BME280;56035;37.534;-122.308;2023-04-25T08:24:24;101350.78;;;7.29;100.00
68986;BME280;56035;37.534;-122.308;2023-04-25T08:26:51;101349.53;;;7.32;100.00
68986;BME280;56035;37.534;-122.308;2023-04-25T08:29:17;101345.50;;;7.27;100.00
68986;BME280;56035;37.534;-122.308;2023-04-25T08:31:43;101347.00;;;7.30;100.00
68986;BME280;56035;37.534;-122.308;2023-04-25T08:34:10;101338.53;;;7.25;100.00
68986;BME280;56035;37.534;-122.308;2023-04-25T08:36:36;101336.88;;;7.24;100.00
68986;BME280;56035;37.534;-122.308;2023-04-25T08:39:03;101340.25;;;7.19;100.00
68986;BME280;56035;37.534;-122.308;2023-04-25T08:41:29;101337.25;;;7.14;100.00
68986;BME280;56035;37.534;-122.308;2023-04-25T08:43:56;101347.16;;;7.15;100.00
68986;BME280;56035;37.534;-122.308;2023-04-25T08:46:25;101353.03;;;7.12;100.00
68986;BME280;56035;37.534;-122.308;2023-04-25T08:48:52;101351.59;;;7.10;100.00
68986;BME280;56035;37.534;-122.308;2023-04-25T08:51:22;101354.28;;;7.03;100.00
68986;BME280;56035;37.534;-122.308;2023-04-25T08:53:52;101335.53;;;7.00;100.00
68986;BME280;56035;37.534;-122.308;2023-04-25T08:56:18;101333.78;;;6.92;100.00
68986;BME280;56035;37.534;-122.308;2023-04-25T08:58:48;101336.75;;;6.91;100.00
68986;BME280;56035;37.534;-122.308;2023-04-25T09:01:16;101328.31;;;6.92;100.00
68986;BME280;56035;37.534;-122.308;2023-04-25T09:03:44;101318.41;;;6.91;100.00
68986;BME280;56035;37.534;-122.308;2023-04-25T09:06:13;101321.16;;;6.91;100.00
68986;BME280;56035;37.534;-122.308;2023-04-25T09:08:41;101322.00;;;6.92;100.00
68986;BME280;56035;37.534;-122.308;2023-04-25T09:11:08;101314.19;;;6.89;100.00
68986;BME280;56035;37.534;-122.308;2023-04-25T09:13:34;101309.34;;;6.91;100.00
68986;BME280;56035;37.534;-122.308;2023-04-25T09:16:00;101303.66;;;6.92;100.00
68986;BME280;56035;37.534;-122.308;2023-04-25T09:18:30;101298.41;;;6.91;100.00
68986;BME280;56035;37.534;-122.308;2023-04-25T09:21:17;101299.00;;;6.86;100.00
68986;BME280;56035;37.534;-122.308;2023-04-25T09:23:48;101296.25;;;6.86;100.00
68986;BME280;56035;37.534;-122.308;2023-04-25T09:26:20;101301.53;;;6.88;100.00
68986;BME280;56035;37.534;-122.308;2023-04-25T09:28:47;101304.69;;;6.85;100.00
68986;BME280;56035;37.534;-122.308;2023-04-25T09:31:23;101293.50;;;6.79;100.00
68986;BME280;56035;37.534;-122.308;2023-04-25T09:33:59;101298.97;;;6.79;100.00
68986;BME280;56035;37.534;-122.308;2023-04-25T09:36:27;101290.13;;;6.77;100.00
68986;BME280;56035;37.534;-122.308;2023-04-25T09:38:54;101285.69;;;6.76;100.00
68986;BME280;56035;37.534;-122.308;2023-04-25T09:41:24;101292.22;;;6.75;100.00
68986;BME280;56035;37.534;-122.308;2023-04-25T09:43:51;101294.53;;;6.72;100.00
68986;BME280;56035;37.534;-122.308;2023-04-25T09:46:17;101286.06;;;6.67;100.00
68986;BME280;56035;37.534;-122.308;2023-04-25T09:48:52;101283.53;;;6.65;100.00
68986;BME280;56035;37.534;-122.308;2023-04-25T09:51:19;101284.38;;;6.66;100.00
68986;BME280;56035;37.534;-122.308;2023-04-25T09:53:46;101281.63;;;6.66;100.00
68986;BME280;56035;37.534;-122.308;2023-04-25T09:56:16;101279.75;;;6.66;100.00
68986;BME280;56035;37.534;-122.308;2023-04-25T09:58:42;101281.00;;;6.64;100.00
68986;BME280;56035;37.534;-122.308;2023-04-25T10:01:10;101268.38;;;6.69;100.00
68986;BME280;56035;37.534;-122.308;2023-04-25T10:03:38;101280.41;;;6.68;100.00
68986;BME280;56035;37.534;-122.308;2023-04-25T10:06:12;101287.34;;;6.64;100.00
68986;BME280;56035;37.534;-122.308;2023-04-25T10:08:40;101280.56;;;6.60;100.00
68986;BME280;56035;37.534;-122.308;2023-04-25T10:11:08;101265.81;;;6.54;100.00
68986;BME280;56035;37.534;-122.308;2023-04-25T10:13:35;101270.84;;;6.51;100.00
68986;BME280;56035;37.534;-122.308;2023-04-25T10:16:03;101269.53;;;6.47;100.00
68986;BME280;56035;37.534;-122.308;2023-04-25T10:18:31;101264.06;;;6.47;100.00
68986;BME280;56035;37.534;-122.308;2023-04-25T10:21:02;101262.38;;;6.46;100.00
68986;BME280;56035;37.534;-122.308;2023-04-25T10:23:31;101256.25;;;6.44;100.00
68986;BME280;56035;37.534;-122.308;2023-04-25T10:25:58;101258.59;;;6.47;100.00
68986;BME280;56035;37.534;-122.308;2023-04-25T10:28:25;101259.25;;;6.49;100.00
68986;BME280;56035;37.534;-122.308;2023-04-25T10:30:59;101260.69;;;6.45;100.00
68986;BME280;56035;37.534;-122.308;2023-04-25T10:33:37;101259.44;;;6.47;100.00
68986;BME280;56035;37.534;-122.308;2023-04-25T10:36:20;101258.38;;;6.42;100.00
68986;BME280;56035;37.534;-122.308;2023-04-25T10:38:50;101256.25;;;6.44;100.00
68986;BME280;56035;37.534;-122.308;2023-04-25T10:41:20;101253.78;;;6.49;100.00
68986;BME280;56035;37.534;-122.308;2023-04-25T10:43:49;101251.22;;;6.47;100.00
68986;BME280;56035;37.534;-122.308;2023-04-25T10:46:26;101259.44;;;6.47;100.00
68986;BME280;56035;37.534;-122.308;2023-04-25T10:48:55;101245.53;;;6.42;100.00
68986;BME280;56035;37.534;-122.308;2023-04-25T10:51:33;101250.16;;;6.42;100.00
68986;BME280;56035;37.534;-122.308;2023-04-25T10:54:02;101250.16;;;6.42;100.00
68986;BME280;56035;37.534;-122.308;2023-04-25T10:56:33;101250.56;;;6.39;100.00
68986;BME280;56035;37.534;-122.308;2023-04-25T11:04:05;101263.00;;;6.41;100.00
68986;BME280;56035;37.534;-122.308;2023-04-25T11:06:37;101257.53;;;6.41;100.00
68986;BME280;56035;37.534;-122.308;2023-04-25T11:09:11;101262.34;;;6.39;100.00
68986;BME280;56035;37.534;-122.308;2023-04-25T11:11:41;101274.94;;;6.33;100.00
68986;BME280;56035;37.534;-122.308;2023-04-25T11:14:07;101270.94;;;6.29;100.00
68986;BME280;56035;37.534;-122.308;2023-04-25T11:16:33;101277.19;;;6.23;100.00
68986;BME280;56035;37.534;-122.308;2023-04-25T11:19:02;101276.97;;;6.18;100.00
68986;BME280;56035;37.534;-122.308;2023-04-25T11:21:29;101264.97;;;6.19;100.00
68986;BME280;56035;37.534;-122.308;2023-04-25T11:23:57;101269.16;;;6.15;100.00
68986;BME280;56035;37.534;-122.308;2023-04-25T11:26:24;101261.16;;;6.14;100.00
68986;BME280;56035;37.534;-122.308;2023-04-25T11:28:51;101274.19;;;6.12;100.00
68986;BME280;56035;37.534;-122.308;2023-04-25T11:31:20;101278.78;;;6.11;100.00
68986;BME280;56035;37.534;-122.308;2023-04-25T11:33:47;101268.72;;;6.12;100.00
68986;BME280;56035;37.534;-122.308;2023-04-25T11:36:13;101269.75;;;6.10;100.00
68986;BME280;56035;37.534;-122.308;2023-04-25T11:38:39;101260.25;;;6.06;100.00
68986;BME280;56035;37.534;-122.308;2023-04-25T11:41:06;101257.56;;;6.13;100.00
68986;BME280;56035;37.534;-122.308;2023-04-25T11:43:32;101261.09;;;6.07;100.00
68986;BME280;56035;37.534;-122.308;2023-04-25T11:45:59;101258.75;;;6.04;100.00
68986;BME280;56035;37.534;-122.308;2023-04-25T11:48:25;101257.09;;;6.03;100.00
68986;BME280;56035;37.534;-122.308;2023-04-25T11:50:51;101258.53;;;5.99;100.00
68986;BME280;56035;37.534;-122.308;2023-04-25T11:53:19;101256.19;;;5.96;100.00
68986;BME280;56035;37.534;-122.308;2023-04-25T11:55:45;101261.19;;;5.92;100.00
68986;BME280;56035;37.534;-122.308;2023-04-25T11:58:11;101256.13;;;5.89;100.00
68986;BME280;56035;37.534;-122.308;2023-04-25T12:00:42;101253.13;;;5.84;100.00
68986;BME280;56035;37.534;-122.308;2023-04-25T12:03:09;101252.22;;;5.77;100.00
68986;BME280;56035;37.534;-122.308;2023-04-25T12:05:35;101250.56;;;5.76;100.00
68986;BME280;56035;37.534;-122.308;2023-04-25T12:08:13;101249.91;;;5.74;100.00
68986;BME280;56035;37.534;-122.308;2023-04-25T12:10:41;101259.34;;;5.71;100.00
68986;BME280;56035;37.534;-122.308;2023-04-25T12:13:37;101252.56;;;5.67;100.00
68986;BME280;56035;37.534;-122.308;2023-04-25T12:16:03;101242.03;;;5.64;100.00
68986;BME280;56035;37.534;-122.308;2023-04-25T12:18:30;101239.53;;;5.62;100.00
68986;BME280;56035;37.534;-122.308;2023-04-25T12:20:56;101246.66;;;5.63;100.00
68986;BME280;56035;37.534;-122.308;2023-04-25T12:23:27;101248.75;;;5.61;100.00